sensor_id;sensor_type;location;lat;lon;timestamp;P1;durP1;ratioP1;P2;durP2;ratioP2
34920;SDS011;21128;50.016;20.002;2023-03-21T00:00:58;39.53;;;29.17;;
34920;SDS011;21128;50.016;20.002;2023-03-21T00:03:30;37.20;;;27.90;;
34920;SDS011;21128;50.016;20.002;2023-03-21T00:06:03;37.30;;;27.63;;
34920;SDS011;21128;50.016;20.002;2023-03-21T00:08:31;37.37;;;28.00;;
34920;SDS011;21128;50.016;20.002;2023-03-21T00:11:00;41.10;;;28.27;;
34920;SDS011;21128;50.016;20.002;2023-03-21T00:13:29;37.60;;;28.10;;
34920;SDS011;21128;50.016;20.002;2023-03-21T00:16:06;38.50;;;28.37;;
34920;SDS011;21128;50.016;20.002;2023-03-21T00:18:35;35.95;;;27.30;;
34920;SDS011;21128;50.016;20.002;2023-03-21T00:21:03;37.13;;;27.80;;
34920;SDS011;21128;50.016;20.002;2023-03-21T00:23:31;37.47;;;27.37;;
34920;SDS011;21128;50.016;20.002;2023-03-21T00:25:59;33.95;;;27.40;;
34920;SDS011;21128;50.016;20.002;2023-03-21T00:28:26;38.20;;;27.23;;
34920;SDS011;21128;50.016;20.002;2023-03-21T00:30:57;36.83;;;28.77;;
34920;SDS011;21128;50.016;20.002;2023-03-21T00:33:25;39.37;;;28.70;;
34920;SDS011;21128;50.016;20.002;2023-03-21T00:35:53;39.63;;;29.63;;
34920;SDS011;21128;50.016;20.002;2023-03-21T00:38:20;41.53;;;30.70;;
34920;SDS011;21128;50.016;20.002;2023-03-21T00:40:48;39.00;;;28.77;;
34920;SDS011;21128;50.016;20.002;2023-03-21T00:43:15;39.42;;;29.98;;
34920;SDS011;21128;50.016;20.002;2023-03-21T00:45:45;38.05;;;29.60;;
34920;SDS011;21128;50.016;20.002;2023-03-21T00:48:12;36.30;;;29.27;;
34920;SDS011;21128;50.016;20.002;2023-03-21T00:50:39;37.87;;;28.90;;
34920;SDS011;21128;50.016;20.002;2023-03-21T00:53:07;41.70;;;29.90;;
34920;SDS011;21128;50.016;20.002;2023-03-21T00:55:34;37.60;;;28.70;;
34920;SDS011;21128;50.016;20.002;2023-03-21T00:58:01;37.77;;;29.07;;
34920;SDS011;21128;50.016;20.002;2023-03-21T01:00:28;39.37;;;28.80;;
34920;SDS011;21128;50.016;20.002;2023-03-21T01:02:56;37.93;;;29.33;;
34920;SDS011;21128;50.016;20.002;2023-03-21T01:05:24;40.17;;;29.10;;
34920;SDS011;21128;50.016;20.002;2023-03-21T01:08:13;38.80;;;28.03;;
34920;SDS011;21128;50.016;20.002;2023-03-21T01:10:43;38.93;;;28.67;;
34920;SDS011;21128;50.016;20.002;2023-03-21T01:13:13;38.07;;;28.60;;
34920;SDS011;21128;50.016;20.002;2023-03-21T01:15:47;39.47;;;28.17;;
34920;SDS011;21128;50.016;20.002;2023-03-21T01:18:16;37.13;;;28.37;;
34920;SDS011;21128;50.016;20.002;2023-03-21T01:20:45;39.57;;;26.83;;
34920;SDS011;21128;50.016;20.002;2023-03-21T01:23:14;35.00;;;27.65;;
34920;SDS011;21128;50.016;20.002;2023-03-21T01:25:42;38.20;;;28.37;;
34920;SDS011;21128;50.016;20.002;2023-03-21T01:28:09;36.67;;;28.27;;
34920;SDS011;21128;50.016;20.002;2023-03-21T01:30:36;38.87;;;29.37;;
34920;SDS011;21128;50.016;20.002;2023-03-21T01:33:03;37.60;;;28.23;;
34920;SDS011;21128;50.016;20.002;2023-03-21T01:35:31;38.07;;;29.40;;
34920;SDS011;21128;50.016;20.002;2023-03-21T01:37:58;37.38;;;29.40;;
34920;SDS011;21128;50.016;20.002;2023-03-21T01:40:26;40.60;;;31.10;;
34920;SDS011;21128;50.016;20.002;2023-03-21T01:42:53;40.40;;;31.00;;
34920;SDS011;21128;50.016;20.002;2023-03-21T01:48:26;43.90;;;31.57;;
34920;SDS011;21128;50.016;20.002;2023-03-21T01:50:54;44.97;;;30.73;;
34920;SDS011;21128;50.016;20.002;2023-03-21T01:53:23;42.87;;;29.50;;
34920;SDS011;21128;50.016;20.002;2023-03-21T01:55:56;37.77;;;29.43;;
34920;SDS011;21128;50.016;20.002;2023-03-21T01:58:27;38.93;;;29.83;;
34920;SDS011;21128;50.016;20.002;2023-03-21T02:00:55;45.53;;;31.97;;
34920;SDS011;21128;50.016;20.002;2023-03-21T02:03:23;37.87;;;29.53;;
34920;SDS011;21128;50.016;20.002;2023-03-21T02:05:59;41.75;;;30.80;;
34920;SDS011;21128;50.016;20.002;2023-03-21T02:08:32;42.40;;;30.85;;
34920;SDS011;21128;50.016;20.002;2023-03-21T02:10:59;39.57;;;30.30;;
34920;SDS011;21128;50.016;20.002;2023-03-21T02:13:26;39.53;;;30.52;;
34920;SDS011;21128;50.016;20.002;2023-03-21T02:26:33;40.40;;;30.20;;
34920;SDS011;21128;50.016;20.002;2023-03-21T02:37:27;39.60;;;29.43;;
34920;SDS011;21128;50.016;20.002;2023-03-21T02:43:00;39.50;;;29.40;;
34920;SDS011;21128;50.016;20.002;2023-03-21T02:45:47;40.85;;;28.40;;
34920;SDS011;21128;50.016;20.002;2023-03-21T02:51:13;41.15;;;30.08;;
34920;SDS011;21128;50.016;20.002;2023-03-21T02:53:44;39.47;;;29.00;;
34920;SDS011;21128;50.016;20.002;2023-03-21T02:56:14;39.47;;;30.80;;
34920;SDS011;21128;50.016;20.002;2023-03-21T02:58:41;39.75;;;29.85;;
34920;SDS011;21128;50.016;20.002;2023-03-21T03:01:09;40.60;;;30.00;;
34920;SDS011;21128;50.016;20.002;2023-03-21T03:03:36;42.50;;;29.57;;
34920;SDS011;21128;50.016;20.002;2023-03-21T03:06:16;42.87;;;31.07;;
34920;SDS011;21128;50.016;20.002;2023-03-21T03:11:32;42.80;;;32.30;;
34920;SDS011;21128;50.016;20.002;2023-03-21T03:19:27;46.53;;;33.48;;
34920;SDS011;21128;50.016;20.002;2023-03-21T03:21:58;44.85;;;33.60;;
34920;SDS011;21128;50.016;20.002;2023-03-21T03:24:43;43.07;;;33.40;;
34920;SDS011;21128;50.016;20.002;2023-03-21T03:27:14;42.97;;;32.57;;
34920;SDS011;21128;50.016;20.002;2023-03-21T03:32:16;40.43;;;32.20;;
34920;SDS011;21128;50.016;20.002;2023-03-21T03:34:48;44.75;;;33.02;;
34920;SDS011;21128;50.016;20.002;2023-03-21T03:37:23;44.30;;;33.53;;
34920;SDS011;21128;50.016;20.002;2023-03-21T03:40:04;47.30;;;34.47;;
34920;SDS011;21128;50.016;20.002;2023-03-21T03:42:42;47.30;;;35.97;;
34920;SDS011;21128;50.016;20.002;2023-03-21T03:45:15;48.00;;;34.67;;
34920;SDS011;21128;50.016;20.002;2023-03-21T03:47:53;48.30;;;35.80;;
34920;SDS011;21128;50.016;20.002;2023-03-21T03:50:42;47.73;;;35.10;;
34920;SDS011;21128;50.016;20.002;2023-03-21T03:53:19;51.70;;;38.40;;
34920;SDS011;21128;50.016;20.002;2023-03-21T03:56:13;51.47;;;38.57;;
34920;SDS011;21128;50.016;20.002;2023-03-21T03:58:40;58.15;;;40.98;;
34920;SDS011;21128;50.016;20.002;2023-03-21T04:01:07;52.30;;;39.55;;
34920;SDS011;21128;50.016;20.002;2023-03-21T04:03:35;53.10;;;40.23;;
34920;SDS011;21128;50.016;20.002;2023-03-21T04:06:06;57.80;;;42.63;;
34920;SDS011;21128;50.016;20.002;2023-03-21T04:08:33;58.75;;;44.10;;
34920;SDS011;21128;50.016;20.002;2023-03-21T04:11:00;61.33;;;45.33;;
34920;SDS011;21128;50.016;20.002;2023-03-21T04:13:28;56.27;;;42.23;;
34920;SDS011;21128;50.016;20.002;2023-03-21T04:15:56;62.67;;;46.53;;
34920;SDS011;21128;50.016;20.002;2023-03-21T04:18:23;62.13;;;45.37;;
34920;SDS011;21128;50.016;20.002;2023-03-21T04:20:50;61.17;;;45.27;;
34920;SDS011;21128;50.016;20.002;2023-03-21T04:23:17;60.95;;;45.80;;
34920;SDS011;21128;50.016;20.002;2023-03-21T04:25:45;69.40;;;47.83;;
34920;SDS011;21128;50.016;20.002;2023-03-21T04:28:13;63.40;;;47.15;;
34920;SDS011;21128;50.016;20.002;2023-03-21T04:30:40;60.40;;;44.67;;
34920;SDS011;21128;50.016;20.002;2023-03-21T04:33:07;65.13;;;45.13;;
34920;SDS011;21128;50.016;20.002;2023-03-21T04:35:34;67.80;;;49.03;;
34920;SDS011;21128;50.016;20.002;2023-03-21T04:38:01;66.73;;;45.83;;
34920;SDS011;21128;50.016;20.002;2023-03-21T04:40:28;71.65;;;47.13;;
34920;SDS011;21128;50.016;20.002;2023-03-21T04:42:56;64.40;;;46.37;;
34920;SDS011;21128;50.016;20.002;2023-03-21T04:45:23;62.78;;;45.20;;
34920;SDS011;21128;50.016;20.002;2023-03-21T04:47:49;64.10;;;45.60;;
34920;SDS011;21128;50.016;20.002;2023-03-21T04:50:16;66.53;;;45.07;;
34920;SDS011;21128;50.016;20.002;2023-03-21T04:52:43;63.30;;;44.13;;
34920;SDS011;21128;50.016;20.002;2023-03-21T04:55:11;63.87;;;43.30;;
34920;SDS011;21128;50.016;20.002;2023-03-21T04:57:38;62.73;;;44.13;;
34920;SDS011;21128;50.016;20.002;2023-03-21T05:00:06;66.37;;;43.37;;
34920;SDS011;21128;50.016;20.002;2023-03-21T05:02:36;55.57;;;40.77;;
34920;SDS011;21128;50.016;20.002;2023-03-21T05:05:04;58.43;;;42.43;;
34920;SDS011;21128;50.016;20.002;2023-03-21T05:07:31;53.73;;;38.63;;
34920;SDS011;21128;50.016;20.002;2023-03-21T05:09:58;59.10;;;41.50;;
34920;SDS011;21128;50.016;20.002;2023-03-21T05:12:25;55.85;;;37.63;;
34920;SDS011;21128;50.016;20.002;2023-03-21T05:14:52;52.30;;;37.90;;
34920;SDS011;21128;50.016;20.002;2023-03-21T05:17:19;52.03;;;37.00;;
34920;SDS011;21128;50.016;20.002;2023-03-21T05:19:50;48.83;;;34.90;;
34920;SDS011;21128;50.016;20.002;2023-03-21T05:22:18;53.70;;;36.20;;
34920;SDS011;21128;50.016;20.002;2023-03-21T05:24:46;53.50;;;35.57;;
34920;SDS011;21128;50.016;20.002;2023-03-21T05:27:16;53.47;;;34.73;;
34920;SDS011;21128;50.016;20.002;2023-03-21T05:32:31;45.13;;;31.57;;
34920;SDS011;21128;50.016;20.002;2023-03-21T05:34:58;43.87;;;30.33;;
34920;SDS011;21128;50.016;20.002;2023-03-21T05:37:25;47.33;;;31.30;;
34920;SDS011;21128;50.016;20.002;2023-03-21T05:39:53;43.45;;;30.68;;
34920;SDS011;21128;50.016;20.002;2023-03-21T05:42:20;44.10;;;31.47;;
34920;SDS011;21128;50.016;20.002;2023-03-21T05:44:47;46.30;;;31.27;;
34920;SDS011;21128;50.016;20.002;2023-03-21T05:47:15;43.47;;;30.60;;
34920;SDS011;21128;50.016;20.002;2023-03-21T05:49:43;47.70;;;29.80;;
34920;SDS011;21128;50.016;20.002;2023-03-21T05:52:11;41.50;;;29.00;;
34920;SDS011;21128;50.016;20.002;2023-03-21T05:54:38;47.80;;;29.57;;
34920;SDS011;21128;50.016;20.002;2023-03-21T05:57:05;44.93;;;29.97;;
34920;SDS011;21128;50.016;20.002;2023-03-21T05:59:33;44.50;;;28.57;;
34920;SDS011;21128;50.016;20.002;2023-03-21T06:02:00;37.43;;;27.47;;
34920;SDS011;21128;50.016;20.002;2023-03-21T06:04:28;42.83;;;29.23;;
34920;SDS011;21128;50.016;20.002;2023-03-21T06:06:56;33.55;;;25.35;;
34920;SDS011;21128;50.016;20.002;2023-03-21T06:09:23;41.47;;;25.47;;
34920;SDS011;21128;50.016;20.002;2023-03-21T06:11:52;35.33;;;24.50;;
34920;SDS011;21128;50.016;20.002;2023-03-21T06:14:22;32.37;;;22.57;;
34920;SDS011;21128;50.016;20.002;2023-03-21T06:16:51;33.00;;;21.77;;
34920;SDS011;21128;50.016;20.002;2023-03-21T06:19:19;31.70;;;21.10;;
34920;SDS011;21128;50.016;20.002;2023-03-21T06:21:49;32.13;;;21.47;;
34920;SDS011;21128;50.016;20.002;2023-03-21T06:24:16;27.77;;;19.05;;
34920;SDS011;21128;50.016;20.002;2023-03-21T06:26:43;25.53;;;19.03;;
34920;SDS011;21128;50.016;20.002;2023-03-21T06:29:11;31.17;;;19.40;;
34920;SDS011;21128;50.016;20.002;2023-03-21T06:31:38;28.93;;;18.17;;
34920;SDS011;21128;50.016;20.002;2023-03-21T06:34:05;26.23;;;16.95;;
34920;SDS011;21128;50.016;20.002;2023-03-21T06:36:33;27.80;;;17.60;;
34920;SDS011;21128;50.016;20.002;2023-03-21T06:39:00;25.30;;;16.77;;
34920;SDS011;21128;50.016;20.002;2023-03-21T06:41:27;26.43;;;17.27;;
34920;SDS011;21128;50.016;20.002;2023-03-21T06:43:54;22.40;;;16.03;;
34920;SDS011;21128;50.016;20.002;2023-03-21T06:46:21;24.07;;;14.57;;
34920;SDS011;21128;50.016;20.002;2023-03-21T06:48:48;18.50;;;14.40;;
34920;SDS011;21128;50.016;20.002;2023-03-21T06:51:15;20.73;;;14.57;;
34920;SDS011;21128;50.016;20.002;2023-03-21T06:53:42;20.77;;;14.37;;
34920;SDS011;21128;50.016;20.002;2023-03-21T06:56:10;18.27;;;12.97;;
34920;SDS011;21128;50.016;20.002;2023-03-21T06:58:39;21.30;;;13.00;;
34920;SDS011;21128;50.016;20.002;2023-03-21T07:01:06;16.10;;;11.80;;
34920;SDS011;21128;50.016;20.002;2023-03-21T07:03:34;22.60;;;11.60;;
34920;SDS011;21128;50.016;20.002;2023-03-21T07:06:04;17.10;;;12.03;;
34920;SDS011;21128;50.016;20.002;2023-03-21T07:08:35;14.73;;;11.27;;
34920;SDS011;21128;50.016;20.002;2023-03-21T07:11:02;15.07;;;10.77;;
34920;SDS011;21128;50.016;20.002;2023-03-21T07:13:30;14.80;;;10.30;;
34920;SDS011;21128;50.016;20.002;2023-03-21T07:15:57;14.50;;;9.83;;
34920;SDS011;21128;50.016;20.002;2023-03-21T07:18:25;15.13;;;9.88;;
34920;SDS011;21128;50.016;20.002;2023-03-21T07:20:52;11.75;;;9.33;;
34920;SDS011;21128;50.016;20.002;2023-03-21T07:23:20;12.07;;;9.23;;
34920;SDS011;21128;50.016;20.002;2023-03-21T07:25:49;12.37;;;9.10;;
34920;SDS011;21128;50.016;20.002;2023-03-21T07:28:18;12.87;;;8.97;;
34920;SDS011;21128;50.016;20.002;2023-03-21T07:30:50;14.10;;;9.20;;
34920;SDS011;21128;50.016;20.002;2023-03-21T07:33:20;13.13;;;8.60;;
34920;SDS011;21128;50.016;20.002;2023-03-21T07:35:50;12.80;;;7.97;;
34920;SDS011;21128;50.016;20.002;2023-03-21T07:38:20;9.07;;;7.57;;
34920;SDS011;21128;50.016;20.002;2023-03-21T07:40:47;12.70;;;7.40;;
34920;SDS011;21128;50.016;20.002;2023-03-21T07:43:15;10.40;;;8.10;;
34920;SDS011;21128;50.016;20.002;2023-03-21T07:45:43;9.97;;;7.77;;
34920;SDS011;21128;50.016;20.002;2023-03-21T07:48:12;11.70;;;8.27;;
34920;SDS011;21128;50.016;20.002;2023-03-21T07:50:45;11.67;;;7.50;;
34920;SDS011;21128;50.016;20.002;2023-03-21T07:53:12;14.25;;;9.20;;
34920;SDS011;21128;50.016;20.002;2023-03-21T07:55:39;10.60;;;7.80;;
34920;SDS011;21128;50.016;20.002;2023-03-21T07:58:06;12.60;;;8.00;;
34920;SDS011;21128;50.016;20.002;2023-03-21T08:00:33;12.63;;;8.13;;
34920;SDS011;21128;50.016;20.002;2023-03-21T08:03:00;10.70;;;7.70;;
34920;SDS011;21128;50.016;20.002;2023-03-21T08:05:33;13.70;;;7.23;;
34920;SDS011;21128;50.016;20.002;2023-03-21T08:08:02;10.57;;;8.03;;
34920;SDS011;21128;50.016;20.002;2023-03-21T08:10:30;11.70;;;8.23;;
34920;SDS011;21128;50.016;20.002;2023-03-21T08:12:57;13.50;;;7.87;;
34920;SDS011;21128;50.016;20.002;2023-03-21T08:15:24;9.73;;;7.70;;
34920;SDS011;21128;50.016;20.002;2023-03-21T08:17:51;13.40;;;8.10;;
34920;SDS011;21128;50.016;20.002;2023-03-21T08:20:20;12.27;;;7.23;;
34920;SDS011;21128;50.016;20.002;2023-03-21T08:22:49;12.70;;;7.43;;
34920;SDS011;21128;50.016;20.002;2023-03-21T08:25:17;9.17;;;6.83;;
34920;SDS011;21128;50.016;20.002;2023-03-21T08:27:45;9.67;;;6.87;;
34920;SDS011;21128;50.016;20.002;2023-03-21T08:32:43;11.53;;;7.50;;
34920;SDS011;21128;50.016;20.002;2023-03-21T08:35:11;11.17;;;7.53;;
34920;SDS011;21128;50.016;20.002;2023-03-21T08:37:41;12.63;;;7.57;;
34920;SDS011;21128;50.016;20.002;2023-03-21T08:40:11;14.67;;;8.17;;
34920;SDS011;21128;50.016;20.002;2023-03-21T08:42:41;14.10;;;8.15;;
34920;SDS011;21128;50.016;20.002;2023-03-21T08:45:10;10.60;;;8.10;;
34920;SDS011;21128;50.016;20.002;2023-03-21T08:47:37;10.63;;;7.73;;
34920;SDS011;21128;50.016;20.002;2023-03-21T08:50:05;13.17;;;7.63;;
34920;SDS011;21128;50.016;20.002;2023-03-21T08:52:34;14.30;;;8.63;;
34920;SDS011;21128;50.016;20.002;2023-03-21T08:55:03;12.25;;;8.50;;
34920;SDS011;21128;50.016;20.002;2023-03-21T08:57:30;14.10;;;9.45;;
34920;SDS011;21128;50.016;20.002;2023-03-21T08:59:57;12.85;;;9.05;;
34920;SDS011;21128;50.016;20.002;2023-03-21T09:02:24;10.90;;;8.10;;
34920;SDS011;21128;50.016;20.002;2023-03-21T09:04:52;9.83;;;7.70;;
34920;SDS011;21128;50.016;20.002;2023-03-21T09:07:20;11.83;;;7.90;;
34920;SDS011;21128;50.016;20.002;2023-03-21T09:09:47;10.30;;;7.87;;
34920;SDS011;21128;50.016;20.002;2023-03-21T09:12:18;10.00;;;7.73;;
34920;SDS011;21128;50.016;20.002;2023-03-21T09:14:45;10.30;;;7.40;;
34920;SDS011;21128;50.016;20.002;2023-03-21T09:17:12;10.70;;;7.90;;
34920;SDS011;21128;50.016;20.002;2023-03-21T09:19:39;13.67;;;9.00;;
34920;SDS011;21128;50.016;20.002;2023-03-21T09:22:06;15.77;;;9.57;;
34920;SDS011;21128;50.016;20.002;2023-03-21T09:24:36;12.90;;;9.10;;
34920;SDS011;21128;50.016;20.002;2023-03-21T09:27:03;12.93;;;9.98;;
34920;SDS011;21128;50.016;20.002;2023-03-21T09:29:30;14.90;;;9.85;;
34920;SDS011;21128;50.016;20.002;2023-03-21T09:31:58;15.23;;;10.90;;
34920;SDS011;21128;50.016;20.002;2023-03-21T09:34:25;18.83;;;11.83;;
34920;SDS011;21128;50.016;20.002;2023-03-21T09:36:52;15.32;;;12.13;;
34920;SDS011;21128;50.016;20.002;2023-03-21T09:39:23;16.57;;;12.30;;
34920;SDS011;21128;50.016;20.002;2023-03-21T09:47:33;16.30;;;11.73;;
34920;SDS011;21128;50.016;20.002;2023-03-21T09:50:17;16.70;;;12.00;;
34920;SDS011;21128;50.016;20.002;2023-03-21T09:55:46;20.33;;;12.50;;
34920;SDS011;21128;50.016;20.002;2023-03-21T10:01:00;15.87;;;11.97;;
34920;SDS011;21128;50.016;20.002;2023-03-21T10:03:33;20.37;;;11.93;;
34920;SDS011;21128;50.016;20.002;2023-03-21T10:06:05;16.43;;;11.60;;
34920;SDS011;21128;50.016;20.002;2023-03-21T10:08:39;14.67;;;11.87;;
34920;SDS011;21128;50.016;20.002;2023-03-21T10:11:18;20.43;;;14.33;;
34920;SDS011;21128;50.016;20.002;2023-03-21T10:16:32;21.55;;;16.25;;
34920;SDS011;21128;50.016;20.002;2023-03-21T10:19:02;22.43;;;16.20;;
34920;SDS011;21128;50.016;20.002;2023-03-21T10:21:37;23.20;;;17.00;;
34920;SDS011;21128;50.016;20.002;2023-03-21T10:26:38;26.37;;;19.47;;
34920;SDS011;21128;50.016;20.002;2023-03-21T10:29:05;24.53;;;19.50;;
34920;SDS011;21128;50.016;20.002;2023-03-21T10:31:35;27.20;;;19.70;;
34920;SDS011;21128;50.016;20.002;2023-03-21T10:34:03;30.30;;;20.80;;
34920;SDS011;21128;50.016;20.002;2023-03-21T10:36:44;25.10;;;19.13;;
34920;SDS011;21128;50.016;20.002;2023-03-21T10:39:18;28.67;;;19.37;;
34920;SDS011;21128;50.016;20.002;2023-03-21T10:42:14;28.33;;;20.23;;
34920;SDS011;21128;50.016;20.002;2023-03-21T10:44:46;29.17;;;21.23;;
34920;SDS011;21128;50.016;20.002;2023-03-21T10:47:33;33.35;;;22.60;;
34920;SDS011;21128;50.016;20.002;2023-03-21T10:50:05;35.83;;;21.03;;
34920;SDS011;21128;50.016;20.002;2023-03-21T10:52:36;25.70;;;20.60;;
34920;SDS011;21128;50.016;20.002;2023-03-21T10:55:32;27.87;;;20.57;;
34920;SDS011;21128;50.016;20.002;2023-03-21T10:58:06;33.83;;;20.23;;
34920;SDS011;21128;50.016;20.002;2023-03-21T11:00:38;26.17;;;19.63;;
34920;SDS011;21128;50.016;20.002;2023-03-21T11:03:13;28.67;;;20.50;;
34920;SDS011;21128;50.016;20.002;2023-03-21T11:05:52;29.57;;;20.83;;
34920;SDS011;21128;50.016;20.002;2023-03-21T11:11:08;28.60;;;20.70;;
34920;SDS011;21128;50.016;20.002;2023-03-21T11:13:41;31.03;;;21.40;;
34920;SDS011;21128;50.016;20.002;2023-03-21T11:16:23;30.13;;;22.20;;
34920;SDS011;21128;50.016;20.002;2023-03-21T11:18:59;30.97;;;22.03;;
34920;SDS011;21128;50.016;20.002;2023-03-21T11:21:28;28.67;;;20.93;;
34920;SDS011;21128;50.016;20.002;2023-03-21T11:24:02;28.13;;;20.87;;
34920;SDS011;21128;50.016;20.002;2023-03-21T11:26:34;28.97;;;20.50;;
34920;SDS011;21128;50.016;20.002;2023-03-21T11:34:56;27.93;;;20.60;;
34920;SDS011;21128;50.016;20.002;2023-03-21T11:37:31;32.50;;;21.90;;
34920;SDS011;21128;50.016;20.002;2023-03-21T11:42:52;31.30;;;21.77;;
34920;SDS011;21128;50.016;20.002;2023-03-21T11:45:25;30.30;;;20.40;;
34920;SDS011;21128;50.016;20.002;2023-03-21T11:48:00;27.73;;;19.87;;
34920;SDS011;21128;50.016;20.002;2023-03-21T11:50:35;26.07;;;18.57;;
34920;SDS011;21128;50.016;20.002;2023-03-21T11:58:52;29.13;;;18.43;;
34920;SDS011;21128;50.016;20.002;2023-03-21T12:12:36;29.43;;;18.93;;
34920;SDS011;21128;50.016;20.002;2023-03-21T12:15:30;28.63;;;20.37;;
34920;SDS011;21128;50.016;20.002;2023-03-21T12:24:19;32.30;;;23.90;;
34920;SDS011;21128;50.016;20.002;2023-03-21T12:27:36;30.33;;;23.80;;
34920;SDS011;21128;50.016;20.002;2023-03-21T12:30:03;34.60;;;26.87;;
34920;SDS011;21128;50.016;20.002;2023-03-21T12:33:05;42.60;;;25.97;;
34920;SDS011;21128;50.016;20.002;2023-03-21T12:35:58;36.50;;;25.93;;
34920;SDS011;21128;50.016;20.002;2023-03-21T12:41:15;37.07;;;27.43;;
34920;SDS011;21128;50.016;20.002;2023-03-21T12:43:44;37.50;;;27.60;;
34920;SDS011;21128;50.016;20.002;2023-03-21T12:46:26;37.83;;;27.67;;
34920;SDS011;21128;50.016;20.002;2023-03-21T12:51:32;40.93;;;30.00;;
34920;SDS011;21128;50.016;20.002;2023-03-21T12:54:08;41.17;;;30.67;;
34920;SDS011;21128;50.016;20.002;2023-03-21T12:59:43;43.33;;;31.63;;
34920;SDS011;21128;50.016;20.002;2023-03-21T13:02:49;41.53;;;30.33;;
34920;SDS011;21128;50.016;20.002;2023-03-21T13:05:34;44.83;;;29.73;;
34920;SDS011;21128;50.016;20.002;2023-03-21T13:08:10;41.03;;;30.00;;
34920;SDS011;21128;50.016;20.002;2023-03-21T13:10:56;36.00;;;27.33;;
34920;SDS011;21128;50.016;20.002;2023-03-21T13:13:35;43.30;;;28.17;;
34920;SDS011;21128;50.016;20.002;2023-03-21T13:21:43;38.97;;;29.27;;
34920;SDS011;21128;50.016;20.002;2023-03-21T13:27:40;37.77;;;29.30;;
34920;SDS011;21128;50.016;20.002;2023-03-21T13:29:51;41.40;;;29.48;;
34920;SDS011;21128;50.016;20.002;2023-03-21T13:32:37;41.63;;;30.43;;
34920;SDS011;21128;50.016;20.002;2023-03-21T13:35:13;49.27;;;31.63;;
34920;SDS011;21128;50.016;20.002;2023-03-21T13:37:41;42.40;;;31.05;;
34920;SDS011;21128;50.016;20.002;2023-03-21T13:40:22;40.33;;;29.83;;
34920;SDS011;21128;50.016;20.002;2023-03-21T13:46:14;42.95;;;28.45;;
34920;SDS011;21128;50.016;20.002;2023-03-21T13:59:12;48.13;;;35.37;;
34920;SDS011;21128;50.016;20.002;2023-03-21T14:02:17;45.07;;;34.03;;
34920;SDS011;21128;50.016;20.002;2023-03-21T14:04:51;44.33;;;33.23;;
34920;SDS011;21128;50.016;20.002;2023-03-21T14:09:54;44.70;;;32.20;;
34920;SDS011;21128;50.016;20.002;2023-03-21T14:17:56;49.17;;;34.00;;
34920;SDS011;21128;50.016;20.002;2023-03-21T14:22:54;45.03;;;33.27;;
34920;SDS011;21128;50.016;20.002;2023-03-21T14:25:22;54.77;;;37.17;;
34920;SDS011;21128;50.016;20.002;2023-03-21T14:27:54;55.07;;;35.70;;
34920;SDS011;21128;50.016;20.002;2023-03-21T14:30:29;53.63;;;36.63;;
34920;SDS011;21128;50.016;20.002;2023-03-21T14:33:19;43.40;;;32.83;;
34920;SDS011;21128;50.016;20.002;2023-03-21T14:36:11;48.35;;;33.30;;
34920;SDS011;21128;50.016;20.002;2023-03-21T14:38:41;47.17;;;32.73;;
34920;SDS011;21128;50.016;20.002;2023-03-21T14:41:20;45.50;;;34.20;;
34920;SDS011;21128;50.016;20.002;2023-03-21T14:47:05;47.40;;;32.57;;
34920;SDS011;21128;50.016;20.002;2023-03-21T14:49:35;48.30;;;31.80;;
34920;SDS011;21128;50.016;20.002;2023-03-21T14:52:03;44.43;;;31.63;;
34920;SDS011;21128;50.016;20.002;2023-03-21T14:54:40;43.00;;;30.37;;
34920;SDS011;21128;50.016;20.002;2023-03-21T14:59:39;39.57;;;27.60;;
34920;SDS011;21128;50.016;20.002;2023-03-21T15:02:15;42.07;;;28.30;;
34920;SDS011;21128;50.016;20.002;2023-03-21T15:04:46;39.57;;;27.57;;
34920;SDS011;21128;50.016;20.002;2023-03-21T15:07:29;43.87;;;27.60;;
34920;SDS011;21128;50.016;20.002;2023-03-21T15:10:00;38.58;;;26.23;;
34920;SDS011;21128;50.016;20.002;2023-03-21T15:12:32;38.50;;;25.07;;
34920;SDS011;21128;50.016;20.002;2023-03-21T15:15:00;35.87;;;25.40;;
34920;SDS011;21128;50.016;20.002;2023-03-21T15:17:28;40.23;;;25.70;;
34920;SDS011;21128;50.016;20.002;2023-03-21T15:19:56;37.70;;;25.30;;
34920;SDS011;21128;50.016;20.002;2023-03-21T15:22:33;39.53;;;24.80;;
34920;SDS011;21128;50.016;20.002;2023-03-21T15:25:06;34.13;;;25.50;;
34920;SDS011;21128;50.016;20.002;2023-03-21T15:27:36;38.30;;;26.25;;
34920;SDS011;21128;50.016;20.002;2023-03-21T15:30:07;34.70;;;24.47;;
34920;SDS011;21128;50.016;20.002;2023-03-21T15:32:45;37.13;;;24.27;;
34920;SDS011;21128;50.016;20.002;2023-03-21T15:35:14;37.27;;;24.60;;
34920;SDS011;21128;50.016;20.002;2023-03-21T15:37:50;35.60;;;25.05;;
34920;SDS011;21128;50.016;20.002;2023-03-21T15:40:26;38.57;;;23.60;;
34920;SDS011;21128;50.016;20.002;2023-03-21T15:45:54;34.37;;;24.40;;
34920;SDS011;21128;50.016;20.002;2023-03-21T15:48:26;36.23;;;24.67;;
34920;SDS011;21128;50.016;20.002;2023-03-21T15:53:22;34.63;;;23.77;;
34920;SDS011;21128;50.016;20.002;2023-03-21T15:55:50;36.27;;;23.47;;
34920;SDS011;21128;50.016;20.002;2023-03-21T15:58:20;37.50;;;22.63;;
34920;SDS011;21128;50.016;20.002;2023-03-21T16:00:53;31.07;;;20.80;;
34920;SDS011;21128;50.016;20.002;2023-03-21T16:03:23;35.60;;;21.70;;
34920;SDS011;21128;50.016;20.002;2023-03-21T16:06:28;31.67;;;22.20;;
34920;SDS011;21128;50.016;20.002;2023-03-21T16:08:52;30.95;;;20.80;;
34920;SDS011;21128;50.016;20.002;2023-03-21T16:11:42;33.67;;;21.67;;
34920;SDS011;21128;50.016;20.002;2023-03-21T16:14:13;34.17;;;22.03;;
34920;SDS011;21128;50.016;20.002;2023-03-21T16:16:40;33.53;;;21.97;;
34920;SDS011;21128;50.016;20.002;2023-03-21T16:19:09;30.83;;;20.53;;
34920;SDS011;21128;50.016;20.002;2023-03-21T16:21:37;29.85;;;21.10;;
34920;SDS011;21128;50.016;20.002;2023-03-21T16:24:05;35.57;;;22.90;;
34920;SDS011;21128;50.016;20.002;2023-03-21T16:26:33;35.43;;;23.47;;
34920;SDS011;21128;50.016;20.002;2023-03-21T16:29:03;39.23;;;25.83;;
34920;SDS011;21128;50.016;20.002;2023-03-21T16:31:32;34.83;;;25.17;;
34920;SDS011;21128;50.016;20.002;2023-03-21T16:34:00;39.10;;;26.65;;
34920;SDS011;21128;50.016;20.002;2023-03-21T16:36:28;45.50;;;31.42;;
34920;SDS011;21128;50.016;20.002;2023-03-21T16:38:57;49.07;;;31.90;;
34920;SDS011;21128;50.016;20.002;2023-03-21T16:41:25;52.37;;;32.37;;
34920;SDS011;21128;50.016;20.002;2023-03-21T16:43:53;45.15;;;33.20;;
34920;SDS011;21128;50.016;20.002;2023-03-21T16:46:23;58.60;;;38.20;;
34920;SDS011;21128;50.016;20.002;2023-03-21T16:48:53;59.27;;;39.70;;
34920;SDS011;21128;50.016;20.002;2023-03-21T16:51:27;58.50;;;41.05;;
34920;SDS011;21128;50.016;20.002;2023-03-21T16:53:58;65.40;;;43.03;;
34920;SDS011;21128;50.016;20.002;2023-03-21T16:56:28;61.27;;;40.73;;
34920;SDS011;21128;50.016;20.002;2023-03-21T16:59:01;64.20;;;42.80;;
34920;SDS011;21128;50.016;20.002;2023-03-21T17:01:28;63.17;;;42.87;;